sensor_id;sensor_type;location;lat;lon;timestamp;P1;durP1;ratioP1;P2;durP2;ratioP2
3997;SDS011;61314;53.444;9.902;2022-09-09T00:04:15;65.57;;;36.17;;
3997;SDS011;61314;53.444;9.902;2022-09-09T00:07:35;70.67;;;35.73;;
3997;SDS011;61314;53.444;9.902;2022-09-09T00:12:49;88.10;;;39.73;;
3997;SDS011;61314;53.444;9.902;2022-09-09T00:15:29;75.80;;;38.60;;
3997;SDS011;61314;53.444;9.902;2022-09-09T00:23:32;71.97;;;35.30;;
3997;SDS011;61314;53.444;9.902;2022-09-09T00:26:06;68.40;;;35.27;;
3997;SDS011;61314;53.444;9.902;2022-09-09T00:29:01;71.90;;;35.87;;
3997;SDS011;61314;53.444;9.902;2022-09-09T00:31:44;66.10;;;35.80;;
3997;SDS011;61314;53.444;9.902;2022-09-09T00:34:15;68.70;;;35.10;;
3997;SDS011;61314;53.444;9.902;2022-09-09T00:36:47;72.43;;;35.00;;
3997;SDS011;61314;53.444;9.902;2022-09-09T00:39:21;70.13;;;37.20;;
3997;SDS011;61314;53.444;9.902;2022-09-09T00:42:10;68.47;;;35.30;;
3997;SDS011;61314;53.444;9.902;2022-09-09T00:45:13;75.37;;;35.17;;
3997;SDS011;61314;53.444;9.902;2022-09-09T00:48:09;66.87;;;33.93;;
3997;SDS011;61314;53.444;9.902;2022-09-09T00:50:41;61.33;;;33.13;;
3997;SDS011;61314;53.444;9.902;2022-09-09T00:53:28;63.00;;;34.60;;
3997;SDS011;61314;53.444;9.902;2022-09-09T00:56:14;59.23;;;32.97;;
3997;SDS011;61314;53.444;9.902;2022-09-09T00:59:34;61.73;;;33.07;;
3997;SDS011;61314;53.444;9.902;2022-09-09T01:01:36;55.43;;;32.07;;
3997;SDS011;61314;53.444;9.902;2022-09-09T01:04:08;54.10;;;32.20;;
3997;SDS011;61314;53.444;9.902;2022-09-09T01:06:42;40.77;;;26.97;;
3997;SDS011;61314;53.444;9.902;2022-09-09T01:09:34;54.10;;;32.03;;
3997;SDS011;61314;53.444;9.902;2022-09-09T01:12:15;50.27;;;30.13;;
3997;SDS011;61314;53.444;9.902;2022-09-09T01:14:45;49.83;;;29.73;;
3997;SDS011;61314;53.444;9.902;2022-09-09T01:17:21;52.07;;;31.50;;
3997;SDS011;61314;53.444;9.902;2022-09-09T01:19:57;43.30;;;25.53;;
3997;SDS011;61314;53.444;9.902;2022-09-09T01:22:36;40.17;;;27.00;;
3997;SDS011;61314;53.444;9.902;2022-09-09T01:25:19;32.30;;;23.60;;
3997;SDS011;61314;53.444;9.902;2022-09-09T01:28:06;38.37;;;24.37;;
3997;SDS011;61314;53.444;9.902;2022-09-09T01:30:38;40.47;;;26.07;;
3997;SDS011;61314;53.444;9.902;2022-09-09T01:33:15;40.47;;;25.57;;
3997;SDS011;61314;53.444;9.902;2022-09-09T01:36:00;40.67;;;24.80;;
3997;SDS011;61314;53.444;9.902;2022-09-09T01:38:34;36.27;;;23.70;;
3997;SDS011;61314;53.444;9.902;2022-09-09T01:41:01;38.27;;;26.10;;
3997;SDS011;61314;53.444;9.902;2022-09-09T01:43:28;40.83;;;24.80;;
3997;SDS011;61314;53.444;9.902;2022-09-09T01:45:56;39.17;;;26.20;;
3997;SDS011;61314;53.444;9.902;2022-09-09T01:48:27;42.27;;;26.23;;
3997;SDS011;61314;53.444;9.902;2022-09-09T01:50:54;38.47;;;25.53;;
3997;SDS011;61314;53.444;9.902;2022-09-09T01:53:21;41.23;;;25.17;;
3997;SDS011;61314;53.444;9.902;2022-09-09T01:55:55;42.43;;;25.47;;
3997;SDS011;61314;53.444;9.902;2022-09-09T01:59:07;37.83;;;24.80;;
3997;SDS011;61314;53.444;9.902;2022-09-09T02:01:35;38.67;;;26.60;;
3997;SDS011;61314;53.444;9.902;2022-09-09T02:04:44;32.53;;;23.07;;
3997;SDS011;61314;53.444;9.902;2022-09-09T02:10:05;36.37;;;23.60;;
3997;SDS011;61314;53.444;9.902;2022-09-09T02:12:36;34.17;;;23.57;;
3997;SDS011;61314;53.444;9.902;2022-09-09T02:15:11;49.40;;;26.67;;
3997;SDS011;61314;53.444;9.902;2022-09-09T02:17:46;28.63;;;19.80;;
3997;SDS011;61314;53.444;9.902;2022-09-09T02:20:16;38.37;;;22.67;;
3997;SDS011;61314;53.444;9.902;2022-09-09T02:22:45;35.57;;;25.47;;
3997;SDS011;61314;53.444;9.902;2022-09-09T02:25:15;34.83;;;25.70;;
3997;SDS011;61314;53.444;9.902;2022-09-09T02:27:45;40.10;;;25.67;;
3997;SDS011;61314;53.444;9.902;2022-09-09T02:30:13;38.07;;;25.13;;
3997;SDS011;61314;53.444;9.902;2022-09-09T02:32:41;33.00;;;23.27;;
3997;SDS011;61314;53.444;9.902;2022-09-09T02:35:12;43.63;;;25.43;;
3997;SDS011;61314;53.444;9.902;2022-09-09T02:37:41;39.43;;;25.00;;
3997;SDS011;61314;53.444;9.902;2022-09-09T02:40:13;34.17;;;23.30;;
3997;SDS011;61314;53.444;9.902;2022-09-09T02:42:43;34.13;;;25.63;;
3997;SDS011;61314;53.444;9.902;2022-09-09T02:45:12;38.50;;;25.47;;
3997;SDS011;61314;53.444;9.902;2022-09-09T02:47:50;45.83;;;27.47;;
3997;SDS011;61314;53.444;9.902;2022-09-09T02:50:31;35.87;;;24.90;;
3997;SDS011;61314;53.444;9.902;2022-09-09T02:55:47;36.90;;;24.83;;
3997;SDS011;61314;53.444;9.902;2022-09-09T02:58:23;41.87;;;25.20;;
3997;SDS011;61314;53.444;9.902;2022-09-09T03:00:51;32.13;;;21.93;;
3997;SDS011;61314;53.444;9.902;2022-09-09T03:03:19;42.97;;;28.03;;
3997;SDS011;61314;53.444;9.902;2022-09-09T03:05:48;41.77;;;24.63;;
3997;SDS011;61314;53.444;9.902;2022-09-09T03:08:15;37.17;;;25.20;;
3997;SDS011;61314;53.444;9.902;2022-09-09T03:10:43;37.30;;;25.97;;
3997;SDS011;61314;53.444;9.902;2022-09-09T03:13:10;40.00;;;24.53;;
3997;SDS011;61314;53.444;9.902;2022-09-09T03:15:39;43.50;;;25.10;;
3997;SDS011;61314;53.444;9.902;2022-09-09T03:18:06;41.77;;;25.33;;
3997;SDS011;61314;53.444;9.902;2022-09-09T03:20:33;37.07;;;23.30;;
3997;SDS011;61314;53.444;9.902;2022-09-09T03:23:00;32.57;;;23.77;;
3997;SDS011;61314;53.444;9.902;2022-09-09T03:25:28;30.57;;;22.13;;
3997;SDS011;61314;53.444;9.902;2022-09-09T03:27:56;31.83;;;22.73;;
3997;SDS011;61314;53.444;9.902;2022-09-09T03:30:23;31.03;;;23.33;;
3997;SDS011;61314;53.444;9.902;2022-09-09T03:32:50;35.13;;;22.63;;
3997;SDS011;61314;53.444;9.902;2022-09-09T03:35:18;31.23;;;22.87;;
3997;SDS011;61314;53.444;9.902;2022-09-09T03:37:45;35.33;;;24.30;;
3997;SDS011;61314;53.444;9.902;2022-09-09T03:40:13;35.97;;;23.30;;
3997;SDS011;61314;53.444;9.902;2022-09-09T03:42:40;34.10;;;24.90;;
3997;SDS011;61314;53.444;9.902;2022-09-09T03:45:08;34.17;;;24.43;;
3997;SDS011;61314;53.444;9.902;2022-09-09T03:47:36;39.80;;;23.20;;
3997;SDS011;61314;53.444;9.902;2022-09-09T03:50:04;37.90;;;24.47;;
3997;SDS011;61314;53.444;9.902;2022-09-09T03:52:35;31.50;;;22.40;;
3997;SDS011;61314;53.444;9.902;2022-09-09T03:55:02;35.57;;;23.30;;
3997;SDS011;61314;53.444;9.902;2022-09-09T03:57:29;37.37;;;24.30;;
3997;SDS011;61314;53.444;9.902;2022-09-09T03:59:56;42.30;;;24.40;;
3997;SDS011;61314;53.444;9.902;2022-09-09T04:02:24;34.33;;;24.70;;
3997;SDS011;61314;53.444;9.902;2022-09-09T04:04:51;38.33;;;24.83;;
3997;SDS011;61314;53.444;9.902;2022-09-09T04:07:18;42.30;;;26.60;;
3997;SDS011;61314;53.444;9.902;2022-09-09T04:09:45;34.33;;;22.57;;
3997;SDS011;61314;53.444;9.902;2022-09-09T04:12:12;35.47;;;22.83;;
3997;SDS011;61314;53.444;9.902;2022-09-09T04:14:39;37.53;;;24.50;;
3997;SDS011;61314;53.444;9.902;2022-09-09T04:17:06;28.57;;;21.27;;
3997;SDS011;61314;53.444;9.902;2022-09-09T04:19:33;34.20;;;22.83;;
3997;SDS011;61314;53.444;9.902;2022-09-09T04:22:00;32.97;;;23.30;;
3997;SDS011;61314;53.444;9.902;2022-09-09T04:24:27;36.33;;;24.20;;
3997;SDS011;61314;53.444;9.902;2022-09-09T04:26:55;32.07;;;22.17;;
3997;SDS011;61314;53.444;9.902;2022-09-09T04:29:22;30.63;;;21.67;;
3997;SDS011;61314;53.444;9.902;2022-09-09T04:31:49;28.60;;;21.03;;
3997;SDS011;61314;53.444;9.902;2022-09-09T04:34:16;34.97;;;20.70;;
3997;SDS011;61314;53.444;9.902;2022-09-09T04:36:43;23.67;;;18.33;;
3997;SDS011;61314;53.444;9.902;2022-09-09T04:39:10;31.23;;;19.57;;
3997;SDS011;61314;53.444;9.902;2022-09-09T04:41:37;34.93;;;20.97;;
3997;SDS011;61314;53.444;9.902;2022-09-09T04:44:04;29.83;;;21.00;;
3997;SDS011;61314;53.444;9.902;2022-09-09T04:46:31;33.87;;;19.97;;
3997;SDS011;61314;53.444;9.902;2022-09-09T04:49:00;28.87;;;21.33;;
3997;SDS011;61314;53.444;9.902;2022-09-09T04:51:27;27.30;;;19.53;;
3997;SDS011;61314;53.444;9.902;2022-09-09T04:53:54;30.77;;;18.53;;
3997;SDS011;61314;53.444;9.902;2022-09-09T04:56:21;21.23;;;16.83;;
3997;SDS011;61314;53.444;9.902;2022-09-09T04:58:48;18.43;;;15.30;;
3997;SDS011;61314;53.444;9.902;2022-09-09T05:01:16;21.37;;;15.77;;
3997;SDS011;61314;53.444;9.902;2022-09-09T05:03:44;23.77;;;15.70;;
3997;SDS011;61314;53.444;9.902;2022-09-09T05:06:15;21.20;;;12.70;;
3997;SDS011;61314;53.444;9.902;2022-09-09T05:08:43;31.50;;;13.80;;
3997;SDS011;61314;53.444;9.902;2022-09-09T05:11:20;20.10;;;14.67;;
3997;SDS011;61314;53.444;9.902;2022-09-09T05:13:52;18.40;;;13.73;;
3997;SDS011;61314;53.444;9.902;2022-09-09T05:16:19;21.27;;;14.30;;
3997;SDS011;61314;53.444;9.902;2022-09-09T05:18:47;15.30;;;12.57;;
3997;SDS011;61314;53.444;9.902;2022-09-09T05:21:15;16.90;;;13.77;;
3997;SDS011;61314;53.444;9.902;2022-09-09T05:23:42;16.43;;;13.37;;
3997;SDS011;61314;53.444;9.902;2022-09-09T05:26:11;20.00;;;13.30;;
3997;SDS011;61314;53.444;9.902;2022-09-09T05:28:42;18.00;;;13.37;;
3997;SDS011;61314;53.444;9.902;2022-09-09T05:31:10;18.77;;;13.40;;
3997;SDS011;61314;53.444;9.902;2022-09-09T05:33:39;17.13;;;12.80;;
3997;SDS011;61314;53.444;9.902;2022-09-09T05:36:07;16.37;;;12.77;;
3997;SDS011;61314;53.444;9.902;2022-09-09T05:38:34;16.40;;;12.57;;
3997;SDS011;61314;53.444;9.902;2022-09-09T05:41:02;17.17;;;12.80;;
3997;SDS011;61314;53.444;9.902;2022-09-09T05:43:29;18.30;;;12.13;;
3997;SDS011;61314;53.444;9.902;2022-09-09T05:46:03;17.27;;;12.17;;
3997;SDS011;61314;53.444;9.902;2022-09-09T05:48:31;15.07;;;12.00;;
3997;SDS011;61314;53.444;9.902;2022-09-09T05:50:58;20.07;;;12.47;;
3997;SDS011;61314;53.444;9.902;2022-09-09T05:53:26;20.50;;;12.50;;
3997;SDS011;61314;53.444;9.902;2022-09-09T05:56:00;15.77;;;12.13;;
3997;SDS011;61314;53.444;9.902;2022-09-09T05:58:30;16.00;;;12.80;;
3997;SDS011;61314;53.444;9.902;2022-09-09T06:01:07;17.43;;;12.80;;
3997;SDS011;61314;53.444;9.902;2022-09-09T06:03:35;15.23;;;12.50;;
3997;SDS011;61314;53.444;9.902;2022-09-09T06:06:03;15.57;;;11.97;;
3997;SDS011;61314;53.444;9.902;2022-09-09T06:08:32;17.53;;;11.47;;
3997;SDS011;61314;53.444;9.902;2022-09-09T06:11:05;16.57;;;13.30;;
3997;SDS011;61314;53.444;9.902;2022-09-09T06:13:33;17.50;;;11.40;;
3997;SDS011;61314;53.444;9.902;2022-09-09T06:16:01;24.27;;;11.80;;
3997;SDS011;61314;53.444;9.902;2022-09-09T06:18:28;18.13;;;13.10;;
3997;SDS011;61314;53.444;9.902;2022-09-09T06:20:56;15.20;;;10.77;;
3997;SDS011;61314;53.444;9.902;2022-09-09T06:23:24;14.43;;;10.90;;
3997;SDS011;61314;53.444;9.902;2022-09-09T06:25:51;18.00;;;11.67;;
3997;SDS011;61314;53.444;9.902;2022-09-09T06:28:18;14.20;;;10.37;;
3997;SDS011;61314;53.444;9.902;2022-09-09T06:30:45;14.40;;;10.23;;
3997;SDS011;61314;53.444;9.902;2022-09-09T06:33:13;16.13;;;11.67;;
3997;SDS011;61314;53.444;9.902;2022-09-09T06:35:40;18.20;;;10.97;;
3997;SDS011;61314;53.444;9.902;2022-09-09T06:38:07;16.83;;;12.00;;
3997;SDS011;61314;53.444;9.902;2022-09-09T06:40:34;18.53;;;12.47;;
3997;SDS011;61314;53.444;9.902;2022-09-09T06:43:01;15.83;;;12.80;;
3997;SDS011;61314;53.444;9.902;2022-09-09T06:45:28;13.43;;;11.33;;
3997;SDS011;61314;53.444;9.902;2022-09-09T06:47:55;18.90;;;12.33;;
3997;SDS011;61314;53.444;9.902;2022-09-09T06:50:22;14.00;;;10.73;;
3997;SDS011;61314;53.444;9.902;2022-09-09T06:52:49;14.83;;;9.90;;
3997;SDS011;61314;53.444;9.902;2022-09-09T06:55:17;12.37;;;10.63;;
3997;SDS011;61314;53.444;9.902;2022-09-09T06:57:44;14.33;;;10.70;;
3997;SDS011;61314;53.444;9.902;2022-09-09T07:00:12;17.70;;;10.70;;
3997;SDS011;61314;53.444;9.902;2022-09-09T07:02:40;10.53;;;9.43;;
3997;SDS011;61314;53.444;9.902;2022-09-09T07:05:07;12.10;;;8.93;;
3997;SDS011;61314;53.444;9.902;2022-09-09T07:07:34;11.80;;;8.50;;
3997;SDS011;61314;53.444;9.902;2022-09-09T07:10:01;12.13;;;10.13;;
3997;SDS011;61314;53.444;9.902;2022-09-09T07:12:29;9.50;;;8.40;;
3997;SDS011;61314;53.444;9.902;2022-09-09T07:14:56;10.43;;;9.33;;
3997;SDS011;61314;53.444;9.902;2022-09-09T07:17:23;17.70;;;10.00;;
3997;SDS011;61314;53.444;9.902;2022-09-09T07:19:50;11.57;;;8.77;;
3997;SDS011;61314;53.444;9.902;2022-09-09T07:22:17;12.90;;;8.63;;
3997;SDS011;61314;53.444;9.902;2022-09-09T07:24:46;14.93;;;8.97;;
3997;SDS011;61314;53.444;9.902;2022-09-09T07:27:13;8.27;;;7.47;;
3997;SDS011;61314;53.444;9.902;2022-09-09T07:29:40;9.00;;;8.00;;
3997;SDS011;61314;53.444;9.902;2022-09-09T07:32:07;16.63;;;9.10;;
3997;SDS011;61314;53.444;9.902;2022-09-09T07:34:34;11.70;;;8.90;;
3997;SDS011;61314;53.444;9.902;2022-09-09T07:37:01;13.30;;;7.80;;
3997;SDS011;61314;53.444;9.902;2022-09-09T07:39:28;9.97;;;8.50;;
3997;SDS011;61314;53.444;9.902;2022-09-09T07:41:55;14.83;;;8.83;;
3997;SDS011;61314;53.444;9.902;2022-09-09T07:44:23;11.33;;;8.47;;
3997;SDS011;61314;53.444;9.902;2022-09-09T07:46:53;10.93;;;7.70;;
3997;SDS011;61314;53.444;9.902;2022-09-09T07:49:20;10.23;;;7.80;;
3997;SDS011;61314;53.444;9.902;2022-09-09T07:51:57;7.20;;;6.60;;
3997;SDS011;61314;53.444;9.902;2022-09-09T07:54:24;10.83;;;6.97;;
3997;SDS011;61314;53.444;9.902;2022-09-09T07:56:52;7.10;;;6.50;;
3997;SDS011;61314;53.444;9.902;2022-09-09T07:59:19;12.43;;;6.93;;
3997;SDS011;61314;53.444;9.902;2022-09-09T08:01:47;11.17;;;6.80;;
3997;SDS011;61314;53.444;9.902;2022-09-09T08:04:19;7.80;;;6.00;;
3997;SDS011;61314;53.444;9.902;2022-09-09T08:06:48;9.30;;;5.50;;
3997;SDS011;61314;53.444;9.902;2022-09-09T08:09:18;8.83;;;6.63;;
3997;SDS011;61314;53.444;9.902;2022-09-09T08:11:46;6.60;;;5.60;;
3997;SDS011;61314;53.444;9.902;2022-09-09T08:14:14;6.03;;;5.53;;
3997;SDS011;61314;53.444;9.902;2022-09-09T08:16:45;5.13;;;4.70;;
3997;SDS011;61314;53.444;9.902;2022-09-09T08:19:13;5.93;;;5.47;;
3997;SDS011;61314;53.444;9.902;2022-09-09T08:21:44;5.73;;;4.50;;
3997;SDS011;61314;53.444;9.902;2022-09-09T08:24:11;6.27;;;4.90;;
3997;SDS011;61314;53.444;9.902;2022-09-09T08:26:42;5.73;;;4.60;;
3997;SDS011;61314;53.444;9.902;2022-09-09T08:29:10;5.80;;;5.20;;
3997;SDS011;61314;53.444;9.902;2022-09-09T08:31:40;5.63;;;5.23;;
3997;SDS011;61314;53.444;9.902;2022-09-09T08:34:08;7.03;;;3.97;;
3997;SDS011;61314;53.444;9.902;2022-09-09T08:36:37;3.90;;;3.60;;
3997;SDS011;61314;53.444;9.902;2022-09-09T08:39:06;4.37;;;4.03;;
3997;SDS011;61314;53.444;9.902;2022-09-09T08:41:39;8.77;;;3.97;;
3997;SDS011;61314;53.444;9.902;2022-09-09T08:44:23;6.00;;;3.80;;
3997;SDS011;61314;53.444;9.902;2022-09-09T08:47:05;8.50;;;4.10;;
3997;SDS011;61314;53.444;9.902;2022-09-09T08:50:03;5.20;;;3.83;;
3997;SDS011;61314;53.444;9.902;2022-09-09T08:55:26;5.90;;;3.77;;
3997;SDS011;61314;53.444;9.902;2022-09-09T08:57:55;5.50;;;3.10;;
3997;SDS011;61314;53.444;9.902;2022-09-09T09:00:23;3.20;;;3.00;;
3997;SDS011;61314;53.444;9.902;2022-09-09T09:06:01;3.93;;;3.50;;
3997;SDS011;61314;53.444;9.902;2022-09-09T09:11:24;7.47;;;2.83;;
3997;SDS011;61314;53.444;9.902;2022-09-09T09:13:54;5.13;;;2.67;;
3997;SDS011;61314;53.444;9.902;2022-09-09T09:16:48;4.13;;;3.30;;
3997;SDS011;61314;53.444;9.902;2022-09-09T09:19:28;3.10;;;2.50;;
3997;SDS011;61314;53.444;9.902;2022-09-09T09:21:59;4.27;;;2.50;;
3997;SDS011;61314;53.444;9.902;2022-09-09T09:24:44;8.17;;;3.50;;
3997;SDS011;61314;53.444;9.902;2022-09-09T09:27:36;3.10;;;2.20;;
3997;SDS011;61314;53.444;9.902;2022-09-09T09:30:19;3.50;;;2.00;;
3997;SDS011;61314;53.444;9.902;2022-09-09T09:32:59;3.57;;;1.80;;
3997;SDS011;61314;53.444;9.902;2022-09-09T09:35:29;2.73;;;2.00;;
3997;SDS011;61314;53.444;9.902;2022-09-09T09:37:56;4.63;;;2.07;;
3997;SDS011;61314;53.444;9.902;2022-09-09T09:40:52;4.50;;;1.93;;
3997;SDS011;61314;53.444;9.902;2022-09-09T09:43:30;1.90;;;1.80;;
3997;SDS011;61314;53.444;9.902;2022-09-09T09:45:58;3.67;;;2.00;;
3997;SDS011;61314;53.444;9.902;2022-09-09T09:48:42;3.30;;;2.00;;
3997;SDS011;61314;53.444;9.902;2022-09-09T09:51:13;4.87;;;1.70;;
3997;SDS011;61314;53.444;9.902;2022-09-09T09:53:42;2.40;;;1.80;;
3997;SDS011;61314;53.444;9.902;2022-09-09T09:56:10;5.60;;;1.47;;
3997;SDS011;61314;53.444;9.902;2022-09-09T10:03:55;3.93;;;2.67;;
3997;SDS011;61314;53.444;9.902;2022-09-09T10:06:31;7.60;;;1.70;;
3997;SDS011;61314;53.444;9.902;2022-09-09T10:08:59;5.87;;;1.53;;
3997;SDS011;61314;53.444;9.902;2022-09-09T10:11:30;2.17;;;1.30;;
3997;SDS011;61314;53.444;9.902;2022-09-09T10:14:05;3.13;;;1.40;;
3997;SDS011;61314;53.444;9.902;2022-09-09T10:19:07;2.30;;;1.10;;
3997;SDS011;61314;53.444;9.902;2022-09-09T10:21:54;2.50;;;1.07;;
3997;SDS011;61314;53.444;9.902;2022-09-09T10:27:38;4.60;;;1.47;;
3997;SDS011;61314;53.444;9.902;2022-09-09T10:30:12;3.20;;;1.20;;
3997;SDS011;61314;53.444;9.902;2022-09-09T10:33:03;6.60;;;1.50;;
3997;SDS011;61314;53.444;9.902;2022-09-09T10:35:49;1.43;;;1.33;;
3997;SDS011;61314;53.444;9.902;2022-09-09T10:38:33;2.90;;;1.80;;
3997;SDS011;61314;53.444;9.902;2022-09-09T10:41:31;3.20;;;1.30;;
3997;SDS011;61314;53.444;9.902;2022-09-09T10:50:14;5.20;;;2.17;;
3997;SDS011;61314;53.444;9.902;2022-09-09T10:55:43;7.13;;;1.80;;
3997;SDS011;61314;53.444;9.902;2022-09-09T10:58:18;2.90;;;1.77;;
3997;SDS011;61314;53.444;9.902;2022-09-09T11:00:51;4.97;;;2.33;;
3997;SDS011;61314;53.444;9.902;2022-09-09T11:03:26;2.80;;;2.30;;
3997;SDS011;61314;53.444;9.902;2022-09-09T11:05:57;6.27;;;3.00;;
3997;SDS011;61314;53.444;9.902;2022-09-09T11:08:30;3.43;;;2.70;;
3997;SDS011;61314;53.444;9.902;2022-09-09T11:11:17;2.03;;;1.80;;
3997;SDS011;61314;53.444;9.902;2022-09-09T11:19:26;2.03;;;1.40;;
3997;SDS011;61314;53.444;9.902;2022-09-09T11:22:02;2.40;;;1.90;;
3997;SDS011;61314;53.444;9.902;2022-09-09T11:24:43;6.23;;;2.20;;
3997;SDS011;61314;53.444;9.902;2022-09-09T11:27:26;4.07;;;1.57;;
3997;SDS011;61314;53.444;9.902;2022-09-09T11:30:22;8.07;;;1.80;;
3997;SDS011;61314;53.444;9.902;2022-09-09T11:36:13;4.50;;;2.03;;
3997;SDS011;61314;53.444;9.902;2022-09-09T11:38:47;3.77;;;1.63;;
3997;SDS011;61314;53.444;9.902;2022-09-09T11:41:17;3.00;;;1.60;;
3997;SDS011;61314;53.444;9.902;2022-09-09T11:43:53;6.80;;;3.00;;
3997;SDS011;61314;53.444;9.902;2022-09-09T11:46:20;2.10;;;1.60;;
3997;SDS011;61314;53.444;9.902;2022-09-09T11:49:04;3.50;;;1.90;;
3997;SDS011;61314;53.444;9.902;2022-09-09T11:51:33;2.10;;;1.40;;
3997;SDS011;61314;53.444;9.902;2022-09-09T11:54:02;3.10;;;1.40;;
3997;SDS011;61314;53.444;9.902;2022-09-09T11:56:49;6.33;;;1.90;;
3997;SDS011;61314;53.444;9.902;2022-09-09T11:59:19;3.60;;;1.50;;
3997;SDS011;61314;53.444;9.902;2022-09-09T12:02:00;4.83;;;1.53;;
3997;SDS011;61314;53.444;9.902;2022-09-09T12:07:35;3.90;;;1.87;;
3997;SDS011;61314;53.444;9.902;2022-09-09T12:12:34;2.63;;;1.50;;
3997;SDS011;61314;53.444;9.902;2022-09-09T12:17:45;2.93;;;1.13;;
3997;SDS011;61314;53.444;9.902;2022-09-09T12:25:45;2.17;;;1.50;;
3997;SDS011;61314;53.444;9.902;2022-09-09T12:31:24;2.73;;;1.60;;
3997;SDS011;61314;53.444;9.902;2022-09-09T12:33:52;3.43;;;1.87;;
3997;SDS011;61314;53.444;9.902;2022-09-09T12:36:20;2.63;;;1.53;;
3997;SDS011;61314;53.444;9.902;2022-09-09T12:38:50;4.63;;;1.90;;
3997;SDS011;61314;53.444;9.902;2022-09-09T12:41:25;6.30;;;1.87;;
3997;SDS011;61314;53.444;9.902;2022-09-09T12:44:03;1.87;;;1.60;;
3997;SDS011;61314;53.444;9.902;2022-09-09T12:46:39;2.63;;;1.73;;
3997;SDS011;61314;53.444;9.902;2022-09-09T12:52:04;4.77;;;1.87;;
3997;SDS011;61314;53.444;9.902;2022-09-09T12:54:36;2.50;;;1.77;;
3997;SDS011;61314;53.444;9.902;2022-09-09T12:57:04;8.10;;;2.83;;
3997;SDS011;61314;53.444;9.902;2022-09-09T12:59:36;8.80;;;2.33;;
3997;SDS011;61314;53.444;9.902;2022-09-09T13:02:15;12.43;;;3.03;;
3997;SDS011;61314;53.444;9.902;2022-09-09T13:04:46;9.90;;;1.73;;
3997;SDS011;61314;53.444;9.902;2022-09-09T13:07:13;3.97;;;1.80;;
3997;SDS011;61314;53.444;9.902;2022-09-09T13:09:43;4.20;;;1.67;;
3997;SDS011;61314;53.444;9.902;2022-09-09T13:12:15;2.60;;;1.67;;
3997;SDS011;61314;53.444;9.902;2022-09-09T13:14:43;6.37;;;1.87;;
3997;SDS011;61314;53.444;9.902;2022-09-09T13:17:20;3.67;;;2.10;;
3997;SDS011;61314;53.444;9.902;2022-09-09T13:19:51;6.10;;;2.30;;
3997;SDS011;61314;53.444;9.902;2022-09-09T13:22:20;5.40;;;1.80;;
3997;SDS011;61314;53.444;9.902;2022-09-09T13:25:20;4.30;;;2.50;;
3997;SDS011;61314;53.444;9.902;2022-09-09T13:27:58;3.30;;;2.10;;
3997;SDS011;61314;53.444;9.902;2022-09-09T13:30:35;4.70;;;2.23;;
3997;SDS011;61314;53.444;9.902;2022-09-09T13:33:29;5.63;;;2.57;;
3997;SDS011;61314;53.444;9.902;2022-09-09T13:36:11;4.97;;;3.10;;
3997;SDS011;61314;53.444;9.902;2022-09-09T13:41:19;5.23;;;3.00;;
3997;SDS011;61314;53.444;9.902;2022-09-09T13:43:47;4.63;;;3.37;;
3997;SDS011;61314;53.444;9.902;2022-09-09T13:46:28;8.30;;;3.77;;
3997;SDS011;61314;53.444;9.902;2022-09-09T13:49:00;5.33;;;3.63;;
3997;SDS011;61314;53.444;9.902;2022-09-09T13:54:00;4.60;;;3.63;;
3997;SDS011;61314;53.444;9.902;2022-09-09T13:56:27;5.10;;;3.57;;
3997;SDS011;61314;53.444;9.902;2022-09-09T13:58:53;6.43;;;3.60;;
3997;SDS011;61314;53.444;9.902;2022-09-09T14:01:20;3.10;;;2.90;;
3997;SDS011;61314;53.444;9.902;2022-09-09T14:03:51;4.17;;;3.60;;
3997;SDS011;61314;53.444;9.902;2022-09-09T14:06:19;5.50;;;3.53;;
3997;SDS011;61314;53.444;9.902;2022-09-09T14:08:49;5.40;;;2.80;;
3997;SDS011;61314;53.444;9.902;2022-09-09T14:11:16;3.63;;;3.33;;
3997;SDS011;61314;53.444;9.902;2022-09-09T14:13:44;4.30;;;3.90;;
3997;SDS011;61314;53.444;9.902;2022-09-09T14:16:11;7.53;;;5.23;;
3997;SDS011;61314;53.444;9.902;2022-09-09T14:18:37;10.17;;;4.63;;
3997;SDS011;61314;53.444;9.902;2022-09-09T14:21:04;10.70;;;6.83;;
3997;SDS011;61314;53.444;9.902;2022-09-09T14:23:31;5.77;;;3.90;;
3997;SDS011;61314;53.444;9.902;2022-09-09T14:25:58;5.70;;;5.20;;
3997;SDS011;61314;53.444;9.902;2022-09-09T14:28:24;3.03;;;2.83;;
3997;SDS011;61314;53.444;9.902;2022-09-09T14:31:11;4.20;;;3.50;;
3997;SDS011;61314;53.444;9.902;2022-09-09T14:33:41;5.00;;;4.10;;
3997;SDS011;61314;53.444;9.902;2022-09-09T14:36:07;8.33;;;3.47;;
3997;SDS011;61314;53.444;9.902;2022-09-09T14:38:35;4.57;;;3.17;;
3997;SDS011;61314;53.444;9.902;2022-09-09T14:41:11;3.83;;;3.60;;
3997;SDS011;61314;53.444;9.902;2022-09-09T14:43:42;2.83;;;2.53;;
3997;SDS011;61314;53.444;9.902;2022-09-09T14:46:11;4.43;;;2.60;;
3997;SDS011;61314;53.444;9.902;2022-09-09T14:48:39;3.73;;;3.20;;
3997;SDS011;61314;53.444;9.902;2022-09-09T14:54:03;4.20;;;2.80;;
3997;SDS011;61314;53.444;9.902;2022-09-09T14:56:30;4.03;;;3.73;;
3997;SDS011;61314;53.444;9.902;2022-09-09T14:59:00;4.00;;;2.53;;
3997;SDS011;61314;53.444;9.902;2022-09-09T15:01:28;3.17;;;2.97;;
3997;SDS011;61314;53.444;9.902;2022-09-09T15:03:56;3.20;;;2.90;;
3997;SDS011;61314;53.444;9.902;2022-09-09T15:06:28;4.30;;;3.90;;
3997;SDS011;61314;53.444;9.902;2022-09-09T15:08:57;4.20;;;4.00;;
3997;SDS011;61314;53.444;9.902;2022-09-09T15:11:29;5.70;;;3.60;;
3997;SDS011;61314;53.444;9.902;2022-09-09T15:13:57;5.80;;;3.33;;
3997;SDS011;61314;53.444;9.902;2022-09-09T15:16:26;4.07;;;3.70;;
3997;SDS011;61314;53.444;9.902;2022-09-09T15:18:55;3.20;;;2.90;;
3997;SDS011;61314;53.444;9.902;2022-09-09T15:21:24;3.57;;;3.27;;
3997;SDS011;61314;53.444;9.902;2022-09-09T15:23:52;6.57;;;2.80;;
3997;SDS011;61314;53.444;9.902;2022-09-09T15:26:19;5.53;;;3.50;;
3997;SDS011;61314;53.444;9.902;2022-09-09T15:28:47;2.57;;;2.37;;
3997;SDS011;61314;53.444;9.902;2022-09-09T15:31:16;8.63;;;3.30;;
3997;SDS011;61314;53.444;9.902;2022-09-09T15:33:48;8.20;;;2.80;;
3997;SDS011;61314;53.444;9.902;2022-09-09T15:36:23;4.30;;;2.87;;
3997;SDS011;61314;53.444;9.902;2022-09-09T15:38:52;3.73;;;2.97;;
3997;SDS011;61314;53.444;9.902;2022-09-09T15:41:20;5.07;;;3.03;;
3997;SDS011;61314;53.444;9.902;2022-09-09T15:43:48;6.63;;;3.10;;
3997;SDS011;61314;53.444;9.902;2022-09-09T15:48:44;5.87;;;2.83;;
3997;SDS011;61314;53.444;9.902;2022-09-09T15:51:14;3.40;;;2.97;;
3997;SDS011;61314;53.444;9.902;2022-09-09T15:54:00;4.80;;;3.63;;
3997;SDS011;61314;53.444;9.902;2022-09-09T15:56:28;4.23;;;3.07;;
3997;SDS011;61314;53.444;9.902;2022-09-09T15:58:58;3.60;;;2.60;;
3997;SDS011;61314;53.444;9.902;2022-09-09T16:01:26;2.30;;;2.20;;
3997;SDS011;61314;53.444;9.902;2022-09-09T16:03:53;8.83;;;2.67;;
3997;SDS011;61314;53.444;9.902;2022-09-09T16:06:21;3.20;;;2.30;;
3997;SDS011;61314;53.444;9.902;2022-09-09T16:08:49;3.17;;;2.37;;
3997;SDS011;61314;53.444;9.902;2022-09-09T16:11:19;4.10;;;2.23;;
3997;SDS011;61314;53.444;9.902;2022-09-09T16:13:48;3.70;;;1.97;;
3997;SDS011;61314;53.444;9.902;2022-09-09T16:16:17;2.97;;;2.40;;
3997;SDS011;61314;53.444;9.902;2022-09-09T16:18:46;3.10;;;2.47;;
3997;SDS011;61314;53.444;9.902;2022-09-09T16:21:15;2.40;;;2.20;;
3997;SDS011;61314;53.444;9.902;2022-09-09T16:23:55;1.73;;;1.63;;
3997;SDS011;61314;53.444;9.902;2022-09-09T16:26:23;1.70;;;1.60;;
3997;SDS011;61314;53.444;9.902;2022-09-09T16:28:49;2.40;;;1.67;;
3997;SDS011;61314;53.444;9.902;2022-09-09T16:31:17;3.30;;;1.53;;
3997;SDS011;61314;53.444;9.902;2022-09-09T16:33:46;6.17;;;1.30;;
3997;SDS011;61314;53.444;9.902;2022-09-09T16:36:14;2.03;;;1.93;;
3997;SDS011;61314;53.444;9.902;2022-09-09T16:38:46;2.20;;;2.00;;
3997;SDS011;61314;53.444;9.902;2022-09-09T16:41:13;1.83;;;1.73;;